sensor_id;sensor_type;location;lat;lon;timestamp;P1;durP1;ratioP1;P2;durP2;ratioP2
73776;SDS011;62088;50.240;2.696;2022-10-23T00:01:13;6.88;;;1.85;;
73776;SDS011;62088;50.240;2.696;2022-10-23T00:03:41;8.20;;;2.13;;
73776;SDS011;62088;50.240;2.696;2022-10-23T00:06:09;12.10;;;1.92;;
73776;SDS011;62088;50.240;2.696;2022-10-23T00:08:38;7.50;;;2.10;;
73776;SDS011;62088;50.240;2.696;2022-10-23T00:11:06;7.53;;;2.53;;
73776;SDS011;62088;50.240;2.696;2022-10-23T00:13:38;7.50;;;2.30;;
73776;SDS011;62088;50.240;2.696;2022-10-23T00:16:07;7.40;;;2.35;;
73776;SDS011;62088;50.240;2.696;2022-10-23T00:18:35;9.73;;;2.60;;
73776;SDS011;62088;50.240;2.696;2022-10-23T00:21:02;10.18;;;2.40;;
73776;SDS011;62088;50.240;2.696;2022-10-23T00:23:30;8.02;;;2.30;;
73776;SDS011;62088;50.240;2.696;2022-10-23T00:25:57;6.63;;;2.30;;
73776;SDS011;62088;50.240;2.696;2022-10-23T00:28:24;5.60;;;2.08;;
73776;SDS011;62088;50.240;2.696;2022-10-23T00:30:51;5.65;;;2.20;;
73776;SDS011;62088;50.240;2.696;2022-10-23T00:33:18;10.68;;;2.47;;
73776;SDS011;62088;50.240;2.696;2022-10-23T00:35:45;7.03;;;2.45;;
73776;SDS011;62088;50.240;2.696;2022-10-23T00:38:12;8.05;;;2.38;;
73776;SDS011;62088;50.240;2.696;2022-10-23T00:40:39;9.48;;;2.58;;
73776;SDS011;62088;50.240;2.696;2022-10-23T00:43:12;8.88;;;2.40;;
73776;SDS011;62088;50.240;2.696;2022-10-23T00:45:47;7.18;;;1.98;;
73776;SDS011;62088;50.240;2.696;2022-10-23T00:48:14;6.78;;;2.35;;
73776;SDS011;62088;50.240;2.696;2022-10-23T00:50:42;6.35;;;1.90;;
73776;SDS011;62088;50.240;2.696;2022-10-23T00:53:13;7.15;;;2.22;;
73776;SDS011;62088;50.240;2.696;2022-10-23T00:55:41;5.80;;;2.30;;
73776;SDS011;62088;50.240;2.696;2022-10-23T00:58:13;6.07;;;2.17;;
73776;SDS011;62088;50.240;2.696;2022-10-23T01:03:10;8.80;;;2.28;;
73776;SDS011;62088;50.240;2.696;2022-10-23T01:05:46;7.82;;;2.05;;
73776;SDS011;62088;50.240;2.696;2022-10-23T01:08:46;8.73;;;2.10;;
73776;SDS011;62088;50.240;2.696;2022-10-23T01:11:31;6.10;;;1.90;;
73776;SDS011;62088;50.240;2.696;2022-10-23T01:22:21;5.68;;;2.00;;
73776;SDS011;62088;50.240;2.696;2022-10-23T01:28:13;4.55;;;1.63;;
73776;SDS011;62088;50.240;2.696;2022-10-23T01:30:46;6.45;;;2.13;;
73776;SDS011;62088;50.240;2.696;2022-10-23T01:33:16;9.98;;;2.22;;
73776;SDS011;62088;50.240;2.696;2022-10-23T01:36:03;6.03;;;1.90;;
73776;SDS011;62088;50.240;2.696;2022-10-23T01:41:32;6.65;;;2.20;;
73776;SDS011;62088;50.240;2.696;2022-10-23T01:46:55;6.32;;;2.20;;
73776;SDS011;62088;50.240;2.696;2022-10-23T01:49:26;6.63;;;2.47;;
73776;SDS011;62088;50.240;2.696;2022-10-23T01:51:56;10.15;;;2.47;;
73776;SDS011;62088;50.240;2.696;2022-10-23T01:54:28;5.57;;;2.55;;
73776;SDS011;62088;50.240;2.696;2022-10-23T01:56:58;8.02;;;2.28;;
73776;SDS011;62088;50.240;2.696;2022-10-23T01:59:32;6.80;;;2.13;;
73776;SDS011;62088;50.240;2.696;2022-10-23T02:02:05;6.45;;;1.95;;
73776;SDS011;62088;50.240;2.696;2022-10-23T02:04:34;7.07;;;2.53;;
73776;SDS011;62088;50.240;2.696;2022-10-23T02:07:03;8.10;;;2.35;;
73776;SDS011;62088;50.240;2.696;2022-10-23T02:09:31;6.20;;;2.25;;
73776;SDS011;62088;50.240;2.696;2022-10-23T02:12:01;6.43;;;3.05;;
73776;SDS011;62088;50.240;2.696;2022-10-23T02:17:07;8.25;;;3.42;;
73776;SDS011;62088;50.240;2.696;2022-10-23T02:19:49;8.18;;;3.28;;
73776;SDS011;62088;50.240;2.696;2022-10-23T02:22:27;9.50;;;3.55;;
73776;SDS011;62088;50.240;2.696;2022-10-23T02:25:07;5.95;;;4.05;;
73776;SDS011;62088;50.240;2.696;2022-10-23T02:27:39;5.50;;;3.00;;
73776;SDS011;62088;50.240;2.696;2022-10-23T02:30:16;6.43;;;2.60;;
73776;SDS011;62088;50.240;2.696;2022-10-23T02:32:51;9.18;;;4.13;;
73776;SDS011;62088;50.240;2.696;2022-10-23T02:35:21;9.77;;;5.15;;
73776;SDS011;62088;50.240;2.696;2022-10-23T02:38:00;7.70;;;6.40;;
73776;SDS011;62088;50.240;2.696;2022-10-23T02:40:37;11.55;;;6.57;;
73776;SDS011;62088;50.240;2.696;2022-10-23T02:43:09;10.07;;;6.80;;
73776;SDS011;62088;50.240;2.696;2022-10-23T02:49:38;9.30;;;5.13;;
73776;SDS011;62088;50.240;2.696;2022-10-23T02:54:42;8.60;;;4.82;;
73776;SDS011;62088;50.240;2.696;2022-10-23T02:57:21;8.63;;;5.70;;
73776;SDS011;62088;50.240;2.696;2022-10-23T02:59:56;8.07;;;5.72;;
73776;SDS011;62088;50.240;2.696;2022-10-23T03:05:13;8.40;;;4.40;;
73776;SDS011;62088;50.240;2.696;2022-10-23T03:07:44;8.05;;;4.10;;
73776;SDS011;62088;50.240;2.696;2022-10-23T03:10:14;7.35;;;3.13;;
73776;SDS011;62088;50.240;2.696;2022-10-23T03:12:41;6.88;;;3.40;;
73776;SDS011;62088;50.240;2.696;2022-10-23T03:15:09;5.90;;;3.20;;
73776;SDS011;62088;50.240;2.696;2022-10-23T03:17:38;6.50;;;3.45;;
73776;SDS011;62088;50.240;2.696;2022-10-23T03:20:05;7.65;;;3.60;;
73776;SDS011;62088;50.240;2.696;2022-10-23T03:22:34;11.35;;;3.15;;
73776;SDS011;62088;50.240;2.696;2022-10-23T03:25:01;9.57;;;3.45;;
73776;SDS011;62088;50.240;2.696;2022-10-23T03:27:30;6.13;;;3.00;;
73776;SDS011;62088;50.240;2.696;2022-10-23T03:30:01;5.88;;;2.92;;
73776;SDS011;62088;50.240;2.696;2022-10-23T03:32:29;6.85;;;3.20;;
73776;SDS011;62088;50.240;2.696;2022-10-23T03:34:58;11.40;;;3.00;;
73776;SDS011;62088;50.240;2.696;2022-10-23T03:37:25;6.68;;;3.17;;
73776;SDS011;62088;50.240;2.696;2022-10-23T03:39:52;8.00;;;3.03;;
73776;SDS011;62088;50.240;2.696;2022-10-23T03:42:20;7.93;;;3.00;;
73776;SDS011;62088;50.240;2.696;2022-10-23T03:44:47;6.35;;;3.03;;
73776;SDS011;62088;50.240;2.696;2022-10-23T03:47:16;6.63;;;2.88;;
73776;SDS011;62088;50.240;2.696;2022-10-23T03:49:43;8.18;;;3.22;;
73776;SDS011;62088;50.240;2.696;2022-10-23T03:52:10;7.53;;;2.80;;
73776;SDS011;62088;50.240;2.696;2022-10-23T03:54:38;9.68;;;3.10;;
73776;SDS011;62088;50.240;2.696;2022-10-23T03:57:05;7.70;;;3.17;;
73776;SDS011;62088;50.240;2.696;2022-10-23T03:59:31;8.18;;;2.80;;
73776;SDS011;62088;50.240;2.696;2022-10-23T04:01:59;6.72;;;2.72;;
73776;SDS011;62088;50.240;2.696;2022-10-23T04:04:26;7.50;;;2.83;;
73776;SDS011;62088;50.240;2.696;2022-10-23T04:06:53;6.57;;;3.15;;
73776;SDS011;62088;50.240;2.696;2022-10-23T04:09:20;7.45;;;2.63;;
73776;SDS011;62088;50.240;2.696;2022-10-23T04:11:47;7.25;;;3.38;;
73776;SDS011;62088;50.240;2.696;2022-10-23T04:14:15;7.97;;;3.70;;
73776;SDS011;62088;50.240;2.696;2022-10-23T04:16:42;8.25;;;3.60;;
73776;SDS011;62088;50.240;2.696;2022-10-23T04:19:09;7.93;;;3.55;;
73776;SDS011;62088;50.240;2.696;2022-10-23T04:21:36;8.63;;;3.65;;
73776;SDS011;62088;50.240;2.696;2022-10-23T04:24:03;7.43;;;4.03;;
73776;SDS011;62088;50.240;2.696;2022-10-23T04:26:31;10.55;;;3.85;;
73776;SDS011;62088;50.240;2.696;2022-10-23T04:28:58;6.38;;;3.25;;
73776;SDS011;62088;50.240;2.696;2022-10-23T04:31:27;11.80;;;3.75;;
73776;SDS011;62088;50.240;2.696;2022-10-23T04:33:54;10.30;;;3.60;;
73776;SDS011;62088;50.240;2.696;2022-10-23T04:36:30;10.80;;;4.00;;
73776;SDS011;62088;50.240;2.696;2022-10-23T04:39:05;10.05;;;3.90;;
73776;SDS011;62088;50.240;2.696;2022-10-23T04:41:32;7.85;;;3.40;;
73776;SDS011;62088;50.240;2.696;2022-10-23T04:43:59;8.10;;;3.85;;
73776;SDS011;62088;50.240;2.696;2022-10-23T04:46:26;9.95;;;4.28;;
73776;SDS011;62088;50.240;2.696;2022-10-23T04:48:53;9.27;;;3.90;;
73776;SDS011;62088;50.240;2.696;2022-10-23T04:51:38;8.48;;;3.33;;
73776;SDS011;62088;50.240;2.696;2022-10-23T04:57:10;6.90;;;3.60;;
73776;SDS011;62088;50.240;2.696;2022-10-23T04:59:55;7.68;;;3.45;;
73776;SDS011;62088;50.240;2.696;2022-10-23T05:02:22;10.77;;;4.05;;
73776;SDS011;62088;50.240;2.696;2022-10-23T05:04:51;9.68;;;3.47;;
73776;SDS011;62088;50.240;2.696;2022-10-23T05:07:37;7.20;;;3.45;;
73776;SDS011;62088;50.240;2.696;2022-10-23T05:10:37;8.38;;;3.30;;
73776;SDS011;62088;50.240;2.696;2022-10-23T05:13:10;9.13;;;4.10;;
73776;SDS011;62088;50.240;2.696;2022-10-23T05:15:38;9.05;;;3.10;;
73776;SDS011;62088;50.240;2.696;2022-10-23T05:18:16;6.18;;;3.10;;
73776;SDS011;62088;50.240;2.696;2022-10-23T05:20:44;14.73;;;3.60;;
73776;SDS011;62088;50.240;2.696;2022-10-23T05:23:12;8.02;;;3.88;;
73776;SDS011;62088;50.240;2.696;2022-10-23T05:25:50;7.97;;;3.88;;
73776;SDS011;62088;50.240;2.696;2022-10-23T05:28:17;10.85;;;3.72;;
73776;SDS011;62088;50.240;2.696;2022-10-23T05:30:44;9.45;;;3.63;;
73776;SDS011;62088;50.240;2.696;2022-10-23T05:33:13;8.13;;;3.33;;
73776;SDS011;62088;50.240;2.696;2022-10-23T05:35:41;7.97;;;3.60;;
73776;SDS011;62088;50.240;2.696;2022-10-23T05:38:12;7.80;;;3.22;;
73776;SDS011;62088;50.240;2.696;2022-10-23T05:40:41;10.30;;;3.63;;
73776;SDS011;62088;50.240;2.696;2022-10-23T05:43:13;7.57;;;3.90;;
73776;SDS011;62088;50.240;2.696;2022-10-23T05:45:56;5.45;;;3.55;;
73776;SDS011;62088;50.240;2.696;2022-10-23T05:48:43;8.75;;;3.67;;
73776;SDS011;62088;50.240;2.696;2022-10-23T05:51:29;9.32;;;3.88;;
73776;SDS011;62088;50.240;2.696;2022-10-23T05:54:05;8.15;;;3.92;;
73776;SDS011;62088;50.240;2.696;2022-10-23T05:56:59;7.63;;;4.22;;
73776;SDS011;62088;50.240;2.696;2022-10-23T05:59:30;10.48;;;4.78;;
73776;SDS011;62088;50.240;2.696;2022-10-23T06:02:16;9.70;;;5.30;;
73776;SDS011;62088;50.240;2.696;2022-10-23T06:04:55;12.30;;;5.80;;
73776;SDS011;62088;50.240;2.696;2022-10-23T06:07:48;6.50;;;4.78;;
73776;SDS011;62088;50.240;2.696;2022-10-23T06:10:16;11.95;;;4.78;;
73776;SDS011;62088;50.240;2.696;2022-10-23T06:12:45;16.35;;;4.50;;
73776;SDS011;62088;50.240;2.696;2022-10-23T06:15:15;8.65;;;3.92;;
73776;SDS011;62088;50.240;2.696;2022-10-23T06:18:01;12.38;;;3.92;;
73776;SDS011;62088;50.240;2.696;2022-10-23T06:20:36;12.07;;;4.63;;
73776;SDS011;62088;50.240;2.696;2022-10-23T06:23:09;9.15;;;4.30;;
73776;SDS011;62088;50.240;2.696;2022-10-23T06:26:01;10.18;;;3.88;;
73776;SDS011;62088;50.240;2.696;2022-10-23T06:28:40;9.52;;;4.07;;
73776;SDS011;62088;50.240;2.696;2022-10-23T06:31:10;15.32;;;4.32;;
73776;SDS011;62088;50.240;2.696;2022-10-23T06:33:39;12.88;;;3.90;;
73776;SDS011;62088;50.240;2.696;2022-10-23T06:36:08;10.15;;;4.03;;
73776;SDS011;62088;50.240;2.696;2022-10-23T06:38:38;16.60;;;4.47;;
73776;SDS011;62088;50.240;2.696;2022-10-23T06:41:10;8.60;;;4.15;;
73776;SDS011;62088;50.240;2.696;2022-10-23T06:43:39;9.70;;;3.95;;
73776;SDS011;62088;50.240;2.696;2022-10-23T06:46:33;11.82;;;4.13;;
73776;SDS011;62088;50.240;2.696;2022-10-23T06:49:39;14.07;;;4.50;;
73776;SDS011;62088;50.240;2.696;2022-10-23T06:52:06;9.93;;;3.83;;
73776;SDS011;62088;50.240;2.696;2022-10-23T06:54:53;11.00;;;4.20;;
73776;SDS011;62088;50.240;2.696;2022-10-23T06:57:23;10.45;;;4.00;;
73776;SDS011;62088;50.240;2.696;2022-10-23T06:59:51;10.25;;;3.90;;
73776;SDS011;62088;50.240;2.696;2022-10-23T07:02:19;7.93;;;3.92;;
73776;SDS011;62088;50.240;2.696;2022-10-23T07:04:46;10.38;;;4.28;;
73776;SDS011;62088;50.240;2.696;2022-10-23T07:07:17;6.28;;;4.10;;
73776;SDS011;62088;50.240;2.696;2022-10-23T07:09:46;12.05;;;4.20;;
73776;SDS011;62088;50.240;2.696;2022-10-23T07:12:13;9.98;;;4.10;;
73776;SDS011;62088;50.240;2.696;2022-10-23T07:14:47;9.18;;;3.63;;
73776;SDS011;62088;50.240;2.696;2022-10-23T07:17:14;8.98;;;4.18;;
73776;SDS011;62088;50.240;2.696;2022-10-23T07:19:41;11.85;;;4.68;;
73776;SDS011;62088;50.240;2.696;2022-10-23T07:22:13;9.68;;;4.15;;
73776;SDS011;62088;50.240;2.696;2022-10-23T07:25:04;11.98;;;3.97;;
73776;SDS011;62088;50.240;2.696;2022-10-23T07:27:36;14.88;;;4.68;;
73776;SDS011;62088;50.240;2.696;2022-10-23T07:30:06;10.25;;;4.20;;
73776;SDS011;62088;50.240;2.696;2022-10-23T07:32:42;10.95;;;4.10;;
73776;SDS011;62088;50.240;2.696;2022-10-23T07:35:24;8.13;;;4.10;;
73776;SDS011;62088;50.240;2.696;2022-10-23T07:38:01;9.40;;;3.92;;
73776;SDS011;62088;50.240;2.696;2022-10-23T07:40:31;9.43;;;3.63;;
73776;SDS011;62088;50.240;2.696;2022-10-23T07:42:59;10.27;;;4.03;;
73776;SDS011;62088;50.240;2.696;2022-10-23T07:45:26;11.07;;;4.07;;
73776;SDS011;62088;50.240;2.696;2022-10-23T07:47:53;9.60;;;4.15;;
73776;SDS011;62088;50.240;2.696;2022-10-23T07:50:24;11.73;;;5.05;;
73776;SDS011;62088;50.240;2.696;2022-10-23T07:52:51;8.43;;;4.38;;
73776;SDS011;62088;50.240;2.696;2022-10-23T07:55:19;11.00;;;5.47;;
73776;SDS011;62088;50.240;2.696;2022-10-23T07:57:51;13.40;;;6.82;;
73776;SDS011;62088;50.240;2.696;2022-10-23T08:00:29;9.55;;;6.70;;
73776;SDS011;62088;50.240;2.696;2022-10-23T08:03:07;10.57;;;6.95;;
73776;SDS011;62088;50.240;2.696;2022-10-23T08:05:36;12.38;;;5.18;;
73776;SDS011;62088;50.240;2.696;2022-10-23T08:08:03;11.50;;;4.63;;
73776;SDS011;62088;50.240;2.696;2022-10-23T08:10:31;8.48;;;4.35;;
73776;SDS011;62088;50.240;2.696;2022-10-23T08:12:58;16.50;;;4.38;;
73776;SDS011;62088;50.240;2.696;2022-10-23T08:15:50;11.00;;;5.22;;
73776;SDS011;62088;50.240;2.696;2022-10-23T08:18:47;12.07;;;6.35;;
73776;SDS011;62088;50.240;2.696;2022-10-23T08:21:16;10.70;;;6.43;;
73776;SDS011;62088;50.240;2.696;2022-10-23T08:23:44;13.75;;;7.55;;
73776;SDS011;62088;50.240;2.696;2022-10-23T08:26:11;14.18;;;8.73;;
73776;SDS011;62088;50.240;2.696;2022-10-23T08:28:39;14.80;;;8.70;;
73776;SDS011;62088;50.240;2.696;2022-10-23T08:31:10;12.18;;;7.55;;
73776;SDS011;62088;50.240;2.696;2022-10-23T08:33:53;7.28;;;5.28;;
73776;SDS011;62088;50.240;2.696;2022-10-23T08:36:21;13.60;;;6.22;;
73776;SDS011;62088;50.240;2.696;2022-10-23T08:38:50;14.07;;;8.00;;
73776;SDS011;62088;50.240;2.696;2022-10-23T08:41:32;10.30;;;7.07;;
73776;SDS011;62088;50.240;2.696;2022-10-23T08:47:20;13.45;;;5.03;;
73776;SDS011;62088;50.240;2.696;2022-10-23T08:50:36;10.18;;;4.68;;
73776;SDS011;62088;50.240;2.696;2022-10-23T08:53:15;13.77;;;4.47;;
73776;SDS011;62088;50.240;2.696;2022-10-23T08:55:55;12.18;;;4.78;;
73776;SDS011;62088;50.240;2.696;2022-10-23T08:58:32;10.40;;;4.60;;
73776;SDS011;62088;50.240;2.696;2022-10-23T09:01:00;13.52;;;5.28;;
73776;SDS011;62088;50.240;2.696;2022-10-23T09:03:42;12.88;;;4.88;;
73776;SDS011;62088;50.240;2.696;2022-10-23T09:06:15;11.75;;;4.07;;
73776;SDS011;62088;50.240;2.696;2022-10-23T09:11:41;8.32;;;4.40;;
73776;SDS011;62088;50.240;2.696;2022-10-23T09:19:34;9.90;;;4.30;;
73776;SDS011;62088;50.240;2.696;2022-10-23T09:22:01;9.38;;;4.18;;
73776;SDS011;62088;50.240;2.696;2022-10-23T09:24:28;10.65;;;4.32;;
73776;SDS011;62088;50.240;2.696;2022-10-23T09:26:57;9.40;;;4.45;;
73776;SDS011;62088;50.240;2.696;2022-10-23T09:31:55;14.48;;;4.22;;
73776;SDS011;62088;50.240;2.696;2022-10-23T09:34:25;10.30;;;3.88;;
73776;SDS011;62088;50.240;2.696;2022-10-23T09:37:01;14.15;;;4.93;;
73776;SDS011;62088;50.240;2.696;2022-10-23T09:39:47;10.77;;;4.43;;
73776;SDS011;62088;50.240;2.696;2022-10-23T09:42:22;8.65;;;3.60;;
73776;SDS011;62088;50.240;2.696;2022-10-23T09:44:51;9.38;;;4.38;;
73776;SDS011;62088;50.240;2.696;2022-10-23T09:47:21;17.42;;;3.80;;
73776;SDS011;62088;50.240;2.696;2022-10-23T09:49:51;11.45;;;4.68;;
73776;SDS011;62088;50.240;2.696;2022-10-23T09:54:55;14.15;;;4.30;;
73776;SDS011;62088;50.240;2.696;2022-10-23T10:00:06;9.68;;;3.95;;
73776;SDS011;62088;50.240;2.696;2022-10-23T10:02:54;11.02;;;4.05;;
73776;SDS011;62088;50.240;2.696;2022-10-23T10:05:37;8.65;;;3.58;;
73776;SDS011;62088;50.240;2.696;2022-10-23T10:13:51;10.10;;;3.70;;
73776;SDS011;62088;50.240;2.696;2022-10-23T10:30:45;13.88;;;4.03;;
73776;SDS011;62088;50.240;2.696;2022-10-23T10:38:58;11.82;;;3.70;;
73776;SDS011;62088;50.240;2.696;2022-10-23T10:41:51;11.32;;;3.63;;
73776;SDS011;62088;50.240;2.696;2022-10-23T10:44:49;9.35;;;3.53;;
73776;SDS011;62088;50.240;2.696;2022-10-23T10:47:54;7.95;;;3.10;;
73776;SDS011;62088;50.240;2.696;2022-10-23T10:50:59;8.43;;;3.55;;
73776;SDS011;62088;50.240;2.696;2022-10-23T10:59:38;14.30;;;3.17;;
73776;SDS011;62088;50.240;2.696;2022-10-23T11:02:24;7.25;;;3.10;;
73776;SDS011;62088;50.240;2.696;2022-10-23T11:05:09;10.20;;;3.50;;
73776;SDS011;62088;50.240;2.696;2022-10-23T11:07:51;13.00;;;3.42;;
73776;SDS011;62088;50.240;2.696;2022-10-23T11:10:23;8.57;;;3.30;;
73776;SDS011;62088;50.240;2.696;2022-10-23T11:12:50;10.50;;;3.00;;
73776;SDS011;62088;50.240;2.696;2022-10-23T11:15:19;8.23;;;3.10;;
73776;SDS011;62088;50.240;2.696;2022-10-23T11:17:59;8.90;;;2.78;;
73776;SDS011;62088;50.240;2.696;2022-10-23T11:26:11;9.02;;;3.00;;
73776;SDS011;62088;50.240;2.696;2022-10-23T11:31:44;8.45;;;3.30;;
73776;SDS011;62088;50.240;2.696;2022-10-23T11:34:43;9.20;;;3.10;;
73776;SDS011;62088;50.240;2.696;2022-10-23T11:37:33;12.98;;;3.75;;
73776;SDS011;62088;50.240;2.696;2022-10-23T11:40:01;9.13;;;3.17;;
73776;SDS011;62088;50.240;2.696;2022-10-23T11:47:56;9.02;;;2.90;;
73776;SDS011;62088;50.240;2.696;2022-10-23T11:50:30;11.75;;;2.95;;
73776;SDS011;62088;50.240;2.696;2022-10-23T11:53:25;10.02;;;2.88;;
73776;SDS011;62088;50.240;2.696;2022-10-23T11:55:59;8.15;;;2.45;;
73776;SDS011;62088;50.240;2.696;2022-10-23T11:58:28;11.02;;;2.75;;
73776;SDS011;62088;50.240;2.696;2022-10-23T12:06:31;9.68;;;2.80;;
73776;SDS011;62088;50.240;2.696;2022-10-23T12:09:05;8.90;;;2.67;;
73776;SDS011;62088;50.240;2.696;2022-10-23T12:22:23;12.85;;;2.58;;
73776;SDS011;62088;50.240;2.696;2022-10-23T12:33:30;10.68;;;2.60;;
73776;SDS011;62088;50.240;2.696;2022-10-23T12:38:44;8.27;;;2.58;;
73776;SDS011;62088;50.240;2.696;2022-10-23T12:41:23;14.13;;;2.72;;
73776;SDS011;62088;50.240;2.696;2022-10-23T12:43:55;9.20;;;2.42;;
73776;SDS011;62088;50.240;2.696;2022-10-23T12:46:33;6.38;;;2.47;;
73776;SDS011;62088;50.240;2.696;2022-10-23T12:49:15;5.55;;;2.42;;
73776;SDS011;62088;50.240;2.696;2022-10-23T12:51:45;8.43;;;2.33;;
73776;SDS011;62088;50.240;2.696;2022-10-23T12:54:30;13.30;;;2.38;;
73776;SDS011;62088;50.240;2.696;2022-10-23T12:56:58;9.68;;;2.60;;
73776;SDS011;62088;50.240;2.696;2022-10-23T12:59:26;10.05;;;2.28;;
73776;SDS011;62088;50.240;2.696;2022-10-23T13:02:24;8.85;;;2.40;;
73776;SDS011;62088;50.240;2.696;2022-10-23T13:04:51;11.07;;;2.50;;
73776;SDS011;62088;50.240;2.696;2022-10-23T13:07:30;7.38;;;2.92;;
73776;SDS011;62088;50.240;2.696;2022-10-23T13:10:02;6.95;;;2.50;;
73776;SDS011;62088;50.240;2.696;2022-10-23T13:12:34;9.02;;;2.42;;
73776;SDS011;62088;50.240;2.696;2022-10-23T13:22:43;10.20;;;2.30;;
73776;SDS011;62088;50.240;2.696;2022-10-23T13:25:19;6.47;;;2.20;;
73776;SDS011;62088;50.240;2.696;2022-10-23T13:28:00;7.85;;;2.22;;
73776;SDS011;62088;50.240;2.696;2022-10-23T13:33:37;10.25;;;2.70;;
73776;SDS011;62088;50.240;2.696;2022-10-23T13:36:20;11.45;;;2.47;;
73776;SDS011;62088;50.240;2.696;2022-10-23T13:41:47;8.63;;;2.50;;
73776;SDS011;62088;50.240;2.696;2022-10-23T13:44:17;6.15;;;2.13;;
73776;SDS011;62088;50.240;2.696;2022-10-23T13:46:46;9.32;;;2.33;;
73776;SDS011;62088;50.240;2.696;2022-10-23T13:49:14;7.10;;;2.50;;
73776;SDS011;62088;50.240;2.696;2022-10-23T13:51:47;7.90;;;2.20;;
73776;SDS011;62088;50.240;2.696;2022-10-23T13:54:17;8.73;;;2.38;;
73776;SDS011;62088;50.240;2.696;2022-10-23T13:56:46;5.93;;;2.30;;
73776;SDS011;62088;50.240;2.696;2022-10-23T13:59:14;7.90;;;2.20;;
73776;SDS011;62088;50.240;2.696;2022-10-23T14:01:42;8.68;;;2.33;;
73776;SDS011;62088;50.240;2.696;2022-10-23T14:04:10;10.40;;;2.58;;
73776;SDS011;62088;50.240;2.696;2022-10-23T14:06:38;12.02;;;2.50;;
73776;SDS011;62088;50.240;2.696;2022-10-23T14:09:06;7.35;;;2.20;;
73776;SDS011;62088;50.240;2.696;2022-10-23T14:11:34;12.38;;;3.03;;
73776;SDS011;62088;50.240;2.696;2022-10-23T14:14:01;6.38;;;2.38;;
73776;SDS011;62088;50.240;2.696;2022-10-23T14:16:28;8.90;;;2.40;;
73776;SDS011;62088;50.240;2.696;2022-10-23T14:18:56;7.10;;;2.38;;
73776;SDS011;62088;50.240;2.696;2022-10-23T14:21:23;7.03;;;2.45;;
73776;SDS011;62088;50.240;2.696;2022-10-23T14:23:51;10.98;;;2.50;;
73776;SDS011;62088;50.240;2.696;2022-10-23T14:26:20;9.02;;;2.10;;
73776;SDS011;62088;50.240;2.696;2022-10-23T14:28:55;9.10;;;2.67;;
73776;SDS011;62088;50.240;2.696;2022-10-23T14:31:28;10.52;;;2.78;;
73776;SDS011;62088;50.240;2.696;2022-10-23T14:33:55;8.23;;;2.50;;
73776;SDS011;62088;50.240;2.696;2022-10-23T14:36:26;9.18;;;2.40;;
73776;SDS011;62088;50.240;2.696;2022-10-23T14:39:14;8.18;;;2.42;;
73776;SDS011;62088;50.240;2.696;2022-10-23T14:41:41;9.05;;;2.55;;
73776;SDS011;62088;50.240;2.696;2022-10-23T14:44:08;8.55;;;2.35;;
73776;SDS011;62088;50.240;2.696;2022-10-23T14:46:35;9.88;;;2.80;;
73776;SDS011;62088;50.240;2.696;2022-10-23T14:49:04;7.25;;;2.13;;
73776;SDS011;62088;50.240;2.696;2022-10-23T14:51:31;6.97;;;2.20;;
73776;SDS011;62088;50.240;2.696;2022-10-23T14:53:59;7.43;;;2.30;;
73776;SDS011;62088;50.240;2.696;2022-10-23T14:56:31;8.30;;;2.45;;
73776;SDS011;62088;50.240;2.696;2022-10-23T14:59:00;10.45;;;2.40;;
73776;SDS011;62088;50.240;2.696;2022-10-23T15:01:31;9.35;;;2.47;;
73776;SDS011;62088;50.240;2.696;2022-10-23T15:04:11;14.15;;;2.72;;
73776;SDS011;62088;50.240;2.696;2022-10-23T15:06:40;6.05;;;2.33;;
73776;SDS011;62088;50.240;2.696;2022-10-23T15:09:08;8.80;;;2.45;;
73776;SDS011;62088;50.240;2.696;2022-10-23T15:11:35;12.10;;;3.50;;
73776;SDS011;62088;50.240;2.696;2022-10-23T15:14:02;9.63;;;2.47;;
73776;SDS011;62088;50.240;2.696;2022-10-23T15:16:29;8.63;;;2.72;;
73776;SDS011;62088;50.240;2.696;2022-10-23T15:18:57;9.52;;;3.05;;
73776;SDS011;62088;50.240;2.696;2022-10-23T15:21:24;10.45;;;3.28;;
73776;SDS011;62088;50.240;2.696;2022-10-23T15:23:51;8.38;;;3.10;;
73776;SDS011;62088;50.240;2.696;2022-10-23T15:26:20;6.82;;;3.03;;
73776;SDS011;62088;50.240;2.696;2022-10-23T15:28:52;8.68;;;2.55;;
73776;SDS011;62088;50.240;2.696;2022-10-23T15:34:03;9.20;;;2.38;;
73776;SDS011;62088;50.240;2.696;2022-10-23T15:36:31;10.57;;;3.33;;
73776;SDS011;62088;50.240;2.696;2022-10-23T15:38:59;11.18;;;3.90;;
73776;SDS011;62088;50.240;2.696;2022-10-23T15:41:45;11.95;;;3.35;;
73776;SDS011;62088;50.240;2.696;2022-10-23T15:44:14;8.27;;;2.75;;
73776;SDS011;62088;50.240;2.696;2022-10-23T15:46:42;8.85;;;2.88;;
73776;SDS011;62088;50.240;2.696;2022-10-23T15:49:10;6.93;;;2.90;;
73776;SDS011;62088;50.240;2.696;2022-10-23T15:51:37;12.23;;;2.55;;
73776;SDS011;62088;50.240;2.696;2022-10-23T15:54:05;9.68;;;2.50;;
73776;SDS011;62088;50.240;2.696;2022-10-23T15:56:35;7.45;;;2.72;;
73776;SDS011;62088;50.240;2.696;2022-10-23T15:59:02;11.25;;;2.40;;
73776;SDS011;62088;50.240;2.696;2022-10-23T16:01:29;8.60;;;2.92;;
73776;SDS011;62088;50.240;2.696;2022-10-23T16:03:56;11.63;;;2.80;;
73776;SDS011;62088;50.240;2.696;2022-10-23T16:06:23;7.20;;;2.40;;
73776;SDS011;62088;50.240;2.696;2022-10-23T16:08:50;11.30;;;2.90;;
73776;SDS011;62088;50.240;2.696;2022-10-23T16:11:22;15.70;;;3.50;;
73776;SDS011;62088;50.240;2.696;2022-10-23T16:13:55;29.10;;;5.97;;
73776;SDS011;62088;50.240;2.696;2022-10-23T16:16:24;15.95;;;5.50;;
73776;SDS011;62088;50.240;2.696;2022-10-23T16:18:57;42.85;;;7.45;;
73776;SDS011;62088;50.240;2.696;2022-10-23T16:21:26;49.55;;;5.22;;
73776;SDS011;62088;50.240;2.696;2022-10-23T16:23:55;22.48;;;3.60;;
73776;SDS011;62088;50.240;2.696;2022-10-23T16:26:24;7.93;;;1.27;;
73776;SDS011;62088;50.240;2.696;2022-10-23T16:28:57;8.18;;;1.08;;
73776;SDS011;62088;50.240;2.696;2022-10-23T16:31:26;7.82;;;1.20;;
73776;SDS011;62088;50.240;2.696;2022-10-23T16:33:53;3.90;;;1.02;;
73776;SDS011;62088;50.240;2.696;2022-10-23T16:36:28;2.95;;;0.88;;
73776;SDS011;62088;50.240;2.696;2022-10-23T16:39:15;4.43;;;0.82;;
73776;SDS011;62088;50.240;2.696;2022-10-23T16:42:02;6.32;;;1.10;;
73776;SDS011;62088;50.240;2.696;2022-10-23T16:44:56;3.60;;;1.10;;
73776;SDS011;62088;50.240;2.696;2022-10-23T16:47:23;6.18;;;1.48;;
73776;SDS011;62088;50.240;2.696;2022-10-23T16:49:50;8.05;;;1.30;;
73776;SDS011;62088;50.240;2.696;2022-10-23T16:52:17;11.75;;;1.30;;
73776;SDS011;62088;50.240;2.696;2022-10-23T16:54:44;5.57;;;1.63;;
73776;SDS011;62088;50.240;2.696;2022-10-23T16:57:11;5.55;;;1.90;;
73776;SDS011;62088;50.240;2.696;2022-10-23T16:59:38;8.45;;;1.88;;
73776;SDS011;62088;50.240;2.696;2022-10-23T17:02:05;6.78;;;1.70;;
73776;SDS011;62088;50.240;2.696;2022-10-23T17:16:38;10.48;;;2.20;;
73776;SDS011;62088;50.240;2.696;2022-10-23T17:19:08;9.77;;;4.28;;
73776;SDS011;62088;50.240;2.696;2022-10-23T17:21:56;9.13;;;2.50;;
73776;SDS011;62088;50.240;2.696;2022-10-23T17:24:23;8.10;;;2.90;;
73776;SDS011;62088;50.240;2.696;2022-10-23T17:26:50;7.68;;;2.50;;
73776;SDS011;62088;50.240;2.696;2022-10-23T17:29:17;6.70;;;2.05;;
73776;SDS011;62088;50.240;2.696;2022-10-23T17:31:46;15.13;;;2.88;;
73776;SDS011;62088;50.240;2.696;2022-10-23T17:34:16;7.90;;;2.60;;
73776;SDS011;62088;50.240;2.696;2022-10-23T17:36:47;6.72;;;2.50;;
73776;SDS011;62088;50.240;2.696;2022-10-23T17:39:17;10.07;;;2.20;;
73776;SDS011;62088;50.240;2.696;2022-10-23T17:41:46;8.73;;;2.67;;
73776;SDS011;62088;50.240;2.696;2022-10-23T17:44:14;13.55;;;2.65;;
73776;SDS011;62088;50.240;2.696;2022-10-23T17:46:41;6.45;;;2.30;;
73776;SDS011;62088;50.240;2.696;2022-10-23T17:49:09;10.60;;;2.13;;
73776;SDS011;62088;50.240;2.696;2022-10-23T17:51:36;10.25;;;2.17;;